Savannah, Georgia
Current Conditions -  °F | °C
As of 10:58 PM on Wednesday 22 Oct 2014 (Local Time) from KSVN Reporting Station
Clear Clear  
Wind Chill: 14°   Ceiling: Unl
Heat Index: 14°   Visibility: 10mi
Dew Point:   Wind: 3mph
Humidity: 66%   Direction: 360°N
Pressure: 30.05"   Gusts: NA
Location:  32.08°N, 81.09°W
Report Text: KSVN 230258Z AUTO 36003KT 10SM CLR 14/08 A3005 RMK AO2 SLP179 T01420079 51009
Loading
Personal Weather Stations






























Interactive Weather Map New forecast layout! Learn more

10-Day Weather Forecast

Advertisements
Track Severe Weather on mobile